createdAt,value
2022-10-23T00:01:28.452Z,101655.56
2022-10-23T00:04:01.459Z,101651.28
2022-10-23T00:06:29.539Z,101647.03
2022-10-23T00:08:56.428Z,101651.84
2022-10-23T00:11:28.855Z,101652.94
2022-10-23T00:13:57.922Z,101647.88
2022-10-23T00:16:24.412Z,101656.16
2022-10-23T00:18:50.949Z,101655.63
2022-10-23T00:21:17.959Z,101655.09
2022-10-23T00:23:44.881Z,101660.19
2022-10-23T00:26:15.739Z,101653.03
2022-10-23T00:28:44.051Z,101656.78
2022-10-23T00:31:11.379Z,101652.25
2022-10-23T00:33:38.271Z,101652.50
2022-10-23T00:36:07.017Z,101654.34
2022-10-23T00:38:33.898Z,101645.84
2022-10-23T00:41:00.854Z,101654.66
2022-10-23T00:43:30.664Z,101635.19
2022-10-23T00:45:58.408Z,101633.31
2022-10-23T00:48:27.480Z,101639.19
2022-10-23T00:50:55.756Z,101631.75
2022-10-23T00:53:23.031Z,101637.34
2022-10-23T00:55:53.148Z,101630.72
2022-10-23T00:58:21.471Z,101636.84
2022-10-23T01:00:49.801Z,101640.28
2022-10-23T01:03:19.202Z,101633.38
2022-10-23T01:06:03.393Z,101633.66
2022-10-23T01:08:42.960Z,101636.03
2022-10-23T01:11:17.999Z,101636.03
2022-10-23T01:14:10.707Z,101639.22
2022-10-23T01:16:41.536Z,101645.34
2022-10-23T01:19:26.372Z,101637.34
2022-10-23T01:22:13.342Z,101627.22
2022-10-23T01:24:51.121Z,101622.69
2022-10-23T01:27:32.789Z,101628.00
2022-10-23T01:30:05.913Z,101621.88
2022-10-23T01:32:43.565Z,101623.50
2022-10-23T01:35:15.190Z,101628.00
2022-10-23T01:38:01.091Z,101626.16
2022-10-23T01:40:37.557Z,101613.63
2022-10-23T01:43:08.927Z,101610.97
2022-10-23T01:45:42.657Z,101609.88
2022-10-23T01:48:13.778Z,101604.53
2022-10-23T01:50:42.787Z,101615.22
2022-10-23T01:53:09.869Z,101610.97
2022-10-23T01:55:39.335Z,101609.09
2022-10-23T01:58:08.594Z,101597.63
2022-10-23T02:00:38.648Z,101593.38
2022-10-23T02:03:08.691Z,101589.91
2022-10-23T02:05:35.809Z,101594.44
2022-10-23T02:08:03.027Z,101584.06
2022-10-23T02:11:04.459Z,101578.72
2022-10-23T02:13:45.258Z,101578.72
2022-10-23T02:16:24.061Z,101571.81
2022-10-23T02:19:05.899Z,101575.53
2022-10-23T02:21:38.731Z,101569.69
2022-10-23T02:24:14.348Z,101568.91
2022-10-23T02:26:49.463Z,101568.13
2022-10-23T02:29:28.226Z,101564.13
2022-10-23T02:31:54.748Z,101552.66
2022-10-23T02:34:21.398Z,101544.94
2022-10-23T02:36:48.172Z,101545.25
2022-10-23T02:39:14.931Z,101534.84
2022-10-23T02:41:47.127Z,101540.97
2022-10-23T02:44:39.361Z,101550.31
2022-10-23T02:47:33.929Z,101547.38
2022-10-23T02:50:22.215Z,101548.72
2022-10-23T02:53:01.740Z,101552.19
2022-10-23T02:55:53.108Z,101553.50
2022-10-23T02:58:54.939Z,101546.34
2022-10-23T03:01:26.434Z,101544.47
2022-10-23T03:03:57.083Z,101536.47
2022-10-23T03:06:24.586Z,101535.69
2022-10-23T03:09:09.743Z,101525.81
2022-10-23T03:11:36.763Z,101522.38
2022-10-23T03:14:03.523Z,101527.97
2022-10-23T03:16:30.780Z,101518.09
2022-10-23T03:18:57.495Z,101526.88
2022-10-23T03:21:24.409Z,101510.09
2022-10-23T03:23:51.115Z,101504.78
2022-10-23T03:26:17.805Z,101506.66
2022-10-23T03:28:44.412Z,101512.78
2022-10-23T03:31:11.187Z,101504.25
2022-10-23T03:33:37.784Z,101502.38
2022-10-23T03:36:04.765Z,101502.91
2022-10-23T03:38:31.920Z,101500.53
2022-10-23T03:40:58.439Z,101502.91
2022-10-23T03:43:25.094Z,101487.22
2022-10-23T03:45:52.186Z,101490.66
2022-10-23T03:48:18.729Z,101485.34
2022-10-23T03:50:45.174Z,101485.06
2022-10-23T03:53:11.682Z,101481.88
2022-10-23T03:55:38.138Z,101488.78
2022-10-23T03:58:04.628Z,101470.41
2022-10-23T04:00:31.360Z,101473.06
2022-10-23T04:02:58.093Z,101474.16
2022-10-23T04:05:24.923Z,101455.53
2022-10-23T04:07:51.516Z,101453.91
2022-10-23T04:10:18.120Z,101448.59
2022-10-23T04:12:45.153Z,101443.56
2022-10-23T04:15:12.130Z,101445.41
2022-10-23T04:17:38.794Z,101445.41
2022-10-23T04:20:05.871Z,101445.41
2022-10-23T04:22:32.382Z,101441.16
2022-10-23T04:24:58.855Z,101437.72
2022-10-23T04:27:25.462Z,101427.34
2022-10-23T04:29:54.355Z,101434.81
2022-10-23T04:32:23.605Z,101429.75
2022-10-23T04:34:50.208Z,101434.28
2022-10-23T04:37:17.155Z,101422.56
2022-10-23T04:39:43.608Z,101419.91
2022-10-23T04:42:10.104Z,101423.63
2022-10-23T04:44:38.838Z,101413.75
2022-10-23T04:47:05.408Z,101414.06
2022-10-23T04:49:31.914Z,101413.75
2022-10-23T04:51:58.488Z,101417.50
2022-10-23T04:54:25.112Z,101420.97
2022-10-23T04:56:51.800Z,101403.41
2022-10-23T04:59:18.315Z,101407.91
2022-10-23T05:01:45.381Z,101398.88
2022-10-23T05:04:12.076Z,101400.75
2022-10-23T05:06:38.487Z,101402.31
2022-10-23T05:09:04.982Z,101395.41
2022-10-23T05:11:33.170Z,101400.75
2022-10-23T05:47:13.899Z,101390.28
2022-10-23T05:49:40.434Z,101387.31
2022-10-23T05:52:07.112Z,101380.94
2022-10-23T05:54:33.625Z,101376.91
2022-10-23T05:57:00.303Z,101390.75
2022-10-23T05:59:26.998Z,101378.22
2022-10-23T06:01:53.680Z,101376.06
2022-10-23T06:04:20.366Z,101370.47
2022-10-23T06:06:47.873Z,101370.97
2022-10-23T06:09:15.657Z,101368.03
2022-10-23T06:11:42.723Z,101369.94
2022-10-23T06:14:09.218Z,101372.28
2022-10-23T06:16:36.374Z,101366.97
2022-10-23T06:19:03.316Z,101360.56
2022-10-23T06:21:29.776Z,101356.81
2022-10-23T06:23:56.712Z,101350.69
2022-10-23T06:26:23.465Z,101348.81
2022-10-23T06:28:50.167Z,101345.09
2022-10-23T06:31:19.161Z,101344.59
2022-10-23T06:33:47.255Z,101342.44
2022-10-23T06:36:13.992Z,101342.94
2022-10-23T06:38:40.838Z,101334.88
2022-10-23T06:41:18.428Z,101334.84
2022-10-23T06:43:47.528Z,101331.88
2022-10-23T06:46:14.486Z,101334.72
2022-10-23T06:48:44.984Z,101329.53
2022-10-23T06:51:14.951Z,101323.59
2022-10-23T06:53:41.926Z,101322.97
2022-10-23T06:56:12.548Z,101328.97
2022-10-23T06:58:39.774Z,101318.75
2022-10-23T07:01:09.513Z,101317.00
2022-10-23T07:03:36.440Z,101320.13
2022-10-23T07:06:04.887Z,101316.00
2022-10-23T07:08:32.336Z,101315.69
2022-10-23T07:11:05.940Z,101308.38
2022-10-23T07:13:34.499Z,101320.56
2022-10-23T07:16:10.497Z,101323.34
2022-10-23T07:18:37.199Z,101320.03
2022-10-23T07:21:04.016Z,101322.63
2022-10-23T07:23:30.500Z,101319.59
2022-10-23T07:26:03.366Z,101314.66
2022-10-23T07:28:30.076Z,101313.53
2022-10-23T07:30:58.808Z,101311.56
2022-10-23T07:33:25.629Z,101306.66
2022-10-23T07:35:52.218Z,101310.78
2022-10-23T07:38:19.026Z,101309.94
2022-10-23T07:40:45.862Z,101299.16
2022-10-23T07:43:12.541Z,101302.25
2022-10-23T07:45:39.487Z,101291.44
2022-10-23T07:48:06.099Z,101296.38
2022-10-23T07:50:32.764Z,101296.31
2022-10-23T07:52:59.429Z,101294.03
2022-10-23T07:55:26.193Z,101292.06
2022-10-23T07:57:52.933Z,101282.06
2022-10-23T08:00:20.306Z,101281.44
2022-10-23T08:02:46.983Z,101284.03
2022-10-23T08:05:13.954Z,101274.28
2022-10-23T08:07:43.912Z,101276.09
2022-10-23T08:10:10.852Z,101272.50
2022-10-23T08:12:38.719Z,101279.34
2022-10-23T08:15:05.745Z,101276.53
2022-10-23T08:17:32.697Z,101277.53
2022-10-23T08:19:59.563Z,101269.41
2022-10-23T08:22:26.121Z,101265.03
2022-10-23T08:24:55.070Z,101264.63
2022-10-23T08:27:21.784Z,101259.97
2022-10-23T08:29:48.596Z,101265.97
2022-10-23T08:32:15.524Z,101265.41
2022-10-23T08:34:42.213Z,101262.59
2022-10-23T08:37:08.910Z,101255.53
2022-10-23T08:39:36.752Z,101247.69
2022-10-23T08:42:03.682Z,101248.66
2022-10-23T08:44:36.693Z,101238.16
2022-10-23T08:47:19.000Z,101231.09
2022-10-23T08:50:03.745Z,101226.69
2022-10-23T08:52:47.878Z,101223.41
2022-10-23T08:55:26.441Z,101217.94
2022-10-23T08:58:08.478Z,101217.59
2022-10-23T09:00:35.133Z,101220.16
2022-10-23T09:03:05.454Z,101218.44
2022-10-23T09:05:52.634Z,101220.97
2022-10-23T09:08:33.852Z,101204.47
2022-10-23T09:11:06.181Z,101208.09
2022-10-23T09:13:50.640Z,101203.41
2022-10-23T09:16:35.847Z,101199.00
2022-10-23T09:19:02.601Z,101199.69
2022-10-23T09:21:30.138Z,101195.28
2022-10-23T09:23:58.331Z,101184.69
2022-10-23T09:26:26.478Z,101194.19
2022-10-23T09:29:02.396Z,101183.63
2022-10-23T09:31:28.879Z,101180.34
2022-10-23T09:34:01.388Z,101187.75
2022-10-23T09:36:29.785Z,101179.13
2022-10-23T09:39:00.004Z,101184.63
2022-10-23T09:41:29.473Z,101178.97
2022-10-23T09:44:08.120Z,101175.97
2022-10-23T09:49:19.981Z,101164.91
2022-10-23T09:51:54.693Z,101171.88
2022-10-23T09:54:24.207Z,101160.38
2022-10-23T09:56:53.910Z,101157.34
2022-10-23T09:59:31.120Z,101155.78
2022-10-23T10:02:01.491Z,101155.78
2022-10-23T10:04:36.238Z,101161.31
2022-10-23T10:07:05.965Z,101149.19
2022-10-23T10:09:33.394Z,101146.31
2022-10-23T10:12:19.643Z,101151.84
2022-10-23T10:14:55.349Z,101144.75
2022-10-23T10:17:35.065Z,101136.88
2022-10-23T10:20:14.089Z,101128.53
2022-10-23T10:22:54.363Z,101134.03
2022-10-23T10:25:31.940Z,101132.28
2022-10-23T10:28:31.753Z,101123.63
2022-10-23T10:31:24.015Z,101110.34
2022-10-23T10:33:59.749Z,101107.81
2022-10-23T10:36:49.295Z,101105.63
2022-10-23T10:39:32.151Z,101099.28
2022-10-23T10:42:28.077Z,101088.72
2022-10-23T10:45:10.667Z,101086.50
2022-10-23T10:47:47.696Z,101086.97
2022-10-23T10:50:20.070Z,101081.41
2022-10-23T10:52:59.946Z,101068.00
2022-10-23T10:55:38.400Z,101053.19
2022-10-23T10:58:20.194Z,101046.06
2022-10-23T11:00:50.767Z,101036.88
2022-10-23T11:03:40.135Z,101031.34
2022-10-23T11:06:15.019Z,101036.38
2022-10-23T11:08:57.644Z,101054.06
2022-10-23T11:11:34.590Z,101040.81
2022-10-23T11:14:02.198Z,101038.25
2022-10-23T11:16:38.144Z,101032.25
2022-10-23T11:19:14.260Z,101025.91
2022-10-23T11:21:44.768Z,101029.84
2022-10-23T11:24:36.036Z,101034.25
2022-10-23T11:27:08.438Z,101025.88
2022-10-23T11:29:47.197Z,101013.69
2022-10-23T11:32:22.491Z,101008.94
2022-10-23T11:35:26.043Z,101004.50
2022-10-23T11:38:15.110Z,100990.88
2022-10-23T11:40:52.788Z,100978.03
2022-10-23T11:43:31.212Z,100985.09
2022-10-23T11:45:58.207Z,100980.34
2022-10-23T11:48:43.861Z,100970.34
2022-10-23T11:51:33.771Z,100961.41
2022-10-23T11:54:07.698Z,100964.66
2022-10-23T11:56:34.647Z,100970.63
2022-10-23T11:59:22.343Z,100955.56
2022-10-23T12:01:51.860Z,100951.41
2022-10-23T12:04:24.102Z,100946.63
2022-10-23T12:06:56.388Z,100932.19
2022-10-23T12:09:40.900Z,100939.25
2022-10-23T12:12:07.435Z,100946.78
2022-10-23T12:14:41.033Z,100943.09
2022-10-23T12:17:27.371Z,100938.63
2022-10-23T12:19:55.578Z,100935.75
2022-10-23T12:22:31.250Z,100933.97
2022-10-23T12:24:58.826Z,100922.88
2022-10-23T12:27:33.625Z,100906.06
2022-10-23T12:30:40.147Z,100894.97
2022-10-23T12:33:19.326Z,100892.72
2022-10-23T12:36:17.197Z,100898.66
2022-10-23T12:38:46.559Z,100892.94
2022-10-23T13:06:04.644Z,100855.03
2022-10-23T13:08:36.950Z,100842.03
2022-10-23T13:11:05.288Z,100834.06
2022-10-23T13:13:32.297Z,100831.69
2022-10-23T13:15:59.211Z,100836.41
2022-10-23T13:18:25.835Z,100844.59
2022-10-23T13:20:52.479Z,100834.72
2022-10-23T13:23:22.131Z,100830.00
2022-10-23T13:26:03.147Z,100825.50
2022-10-23T13:28:34.066Z,100818.56
2022-10-23T13:31:08.315Z,100803.31
2022-10-23T13:33:42.161Z,100793.31
2022-10-23T13:36:13.620Z,100792.63
2022-10-23T13:38:46.592Z,100783.44
2022-10-23T13:41:17.262Z,100775.00
2022-10-23T13:43:45.998Z,100778.16
2022-10-23T13:46:17.639Z,100772.06
2022-10-23T13:48:44.803Z,100768.22
2022-10-23T13:51:16.407Z,100756.78
2022-10-23T13:53:43.083Z,100744.53
2022-10-23T13:56:14.531Z,100748.47
2022-10-23T13:58:45.435Z,100745.44
2022-10-23T14:01:24.947Z,100750.59
2022-10-23T14:03:55.150Z,100748.25
2022-10-23T14:06:24.976Z,100744.84
2022-10-23T14:08:52.222Z,100741.38
2022-10-23T14:11:23.802Z,100736.75
2022-10-23T14:13:52.594Z,100728.25
2022-10-23T14:16:24.857Z,100730.59
2022-10-23T14:18:51.425Z,100732.19
2022-10-23T14:21:20.381Z,100722.84
2022-10-23T14:23:49.983Z,100726.00
2022-10-23T14:26:20.005Z,100716.00
2022-10-23T14:28:46.811Z,100715.66
2022-10-23T14:31:16.619Z,100706.44
2022-10-23T14:33:45.188Z,100709.25
2022-10-23T14:36:12.556Z,100711.22
2022-10-23T14:38:39.401Z,100714.72
2022-10-23T14:41:14.528Z,100714.81
2022-10-23T14:43:44.176Z,100716.78
2022-10-23T14:46:17.162Z,100707.59
2022-10-23T14:48:46.244Z,100722.19
2022-10-23T14:51:19.197Z,100718.28
2022-10-23T14:53:46.406Z,100714.03
2022-10-23T15:05:20.434Z,100697.44
2022-10-23T15:07:47.112Z,100691.25
2022-10-23T15:10:14.012Z,100680.47
2022-10-23T15:12:40.930Z,100687.00
2022-10-23T15:15:08.656Z,100678.91
2022-10-23T15:17:39.173Z,100678.81
2022-10-23T15:20:06.542Z,100679.25
2022-10-23T15:22:33.264Z,100679.50
2022-10-23T15:25:00.196Z,100672.91
2022-10-23T15:27:26.862Z,100665.16
2022-10-23T15:29:53.518Z,100663.53
2022-10-23T15:32:20.312Z,100649.63
2022-10-23T15:34:49.695Z,100654.09
2022-10-23T15:37:16.750Z,100650.97
2022-10-23T15:39:47.322Z,100646.69
2022-10-23T15:42:14.245Z,100652.78
2022-10-23T15:44:41.398Z,100637.31
2022-10-23T15:47:09.156Z,100642.63
2022-10-23T15:49:36.023Z,100637.13
2022-10-23T15:52:04.917Z,100642.19
2022-10-23T15:54:32.979Z,100636.69
2022-10-23T15:57:00.627Z,100626.25
2022-10-23T15:59:28.544Z,100623.56
2022-10-23T16:01:56.803Z,100627.41
2022-10-23T16:04:26.061Z,100613.50
2022-10-23T16:06:52.811Z,100606.53
2022-10-23T16:09:19.342Z,100592.63
2022-10-23T16:11:45.916Z,100592.97
2022-10-23T16:14:15.263Z,100594.44
2022-10-23T16:16:43.712Z,100599.06
2022-10-23T16:19:11.244Z,100598.28
2022-10-23T16:21:38.023Z,100603.22
2022-10-23T16:24:07.334Z,100604.69
2022-10-23T16:26:35.131Z,100600.44
2022-10-23T16:29:08.518Z,100595.81
2022-10-23T16:31:35.702Z,100606.59
2022-10-23T16:34:04.895Z,100600.78
2022-10-23T16:36:33.649Z,100599.22
2022-10-23T16:39:02.700Z,100589.56
2022-10-23T16:41:29.250Z,100603.84
2022-10-23T16:43:55.940Z,100587.69
2022-10-23T16:46:22.902Z,100592.97
2022-10-23T16:48:52.170Z,100587.91
2022-10-23T16:51:21.726Z,100581.75
2022-10-23T16:53:49.132Z,100580.63
2022-10-23T16:56:19.698Z,100579.75
2022-10-23T16:58:46.912Z,100584.00
2022-10-23T17:01:25.470Z,100593.19
2022-10-23T17:03:53.453Z,100592.41
2022-10-23T17:06:26.021Z,100591.31
2022-10-23T17:08:52.747Z,100590.88
2022-10-23T17:11:25.405Z,100589.28
2022-10-23T17:14:01.914Z,100594.66
2022-10-23T17:16:34.800Z,100596.25
2022-10-23T17:19:08.368Z,100597.69
2022-10-23T17:21:40.521Z,100594.13
2022-10-23T17:24:08.533Z,100590.22
2022-10-23T17:26:36.191Z,100587.53
2022-10-23T17:29:05.173Z,100589.88
2022-10-23T17:31:35.194Z,100579.78
2022-10-23T17:34:06.461Z,100572.53
2022-10-23T17:36:36.889Z,100581.72
2022-10-23T17:39:08.447Z,100585.19
2022-10-23T17:41:39.291Z,100583.19
2022-10-23T17:44:08.249Z,100589.34
2022-10-23T17:46:37.504Z,100581.25
2022-10-23T17:49:05.485Z,100579.72
2022-10-23T17:51:34.191Z,100591.25
2022-10-23T17:54:04.949Z,100589.34
2022-10-23T17:56:34.502Z,100578.56
2022-10-23T17:59:07.491Z,100571.66
2022-10-23T18:01:34.497Z,100570.84
2022-10-23T18:04:04.335Z,100575.56
2022-10-23T18:06:35.516Z,100577.47
2022-10-23T18:09:04.120Z,100573.19
2022-10-23T18:11:33.820Z,100567.81
2022-10-23T18:14:01.445Z,100557.81
2022-10-23T18:16:31.113Z,100564.00
2022-10-23T18:19:02.520Z,100561.31
2022-10-23T18:21:29.305Z,100564.44
2022-10-23T18:23:56.321Z,100569.47
2022-10-23T18:26:26.077Z,100560.97
2022-10-23T18:28:58.908Z,100552.22
2022-10-23T18:31:29.976Z,100566.09
2022-10-23T18:34:03.329Z,100568.78
2022-10-23T19:03:41.276Z,100538.00
2022-10-23T19:06:08.621Z,100532.28
2022-10-23T19:08:41.012Z,100526.44
2022-10-23T19:11:09.898Z,100506.06
2022-10-23T19:13:39.120Z,100460.75
2022-10-23T19:16:18.133Z,100490.69
2022-10-23T19:18:50.647Z,100521.84
2022-10-23T19:21:22.631Z,100485.19
2022-10-23T19:23:49.827Z,100499.81
2022-10-23T19:26:17.233Z,100512.81
2022-10-23T19:28:49.234Z,100517.41
2022-10-23T19:31:18.951Z,100508.19
2022-10-23T19:33:47.852Z,100496.97
2022-10-23T19:36:23.401Z,100508.53
2022-10-23T19:38:50.485Z,100504.28
2022-10-23T19:41:18.425Z,100521.13
2022-10-23T19:43:47.073Z,100519.97
2022-10-23T19:46:17.075Z,100534.91
2022-10-23T19:48:45.295Z,100532.81
2022-10-23T19:51:15.704Z,100541.13
2022-10-23T19:53:43.042Z,100554.22
2022-10-23T19:56:14.197Z,100558.84
2022-10-23T19:58:41.238Z,100564.78
2022-10-23T20:01:15.784Z,100575.09
2022-10-23T20:12:47.434Z,100577.63
2022-10-23T20:15:23.492Z,100584.22
2022-10-23T20:17:50.063Z,100591.31
2022-10-23T20:20:16.753Z,100587.94
2022-10-23T20:22:44.183Z,100595.03
2022-10-23T20:25:11.116Z,100594.78
2022-10-23T20:30:10.068Z,100599.03
2022-10-23T20:32:36.794Z,100613.03
2022-10-23T20:35:03.846Z,100625.09
2022-10-23T20:37:30.545Z,100633.66
2022-10-23T20:39:57.195Z,100627.28
2022-10-23T20:42:23.723Z,100621.66
2022-10-23T20:44:50.413Z,100637.22
2022-10-23T20:47:17.016Z,100630.03
2022-10-23T20:49:43.765Z,100637.50
2022-10-23T20:52:10.381Z,100642.28
2022-10-23T20:54:38.214Z,100647.84
2022-10-23T20:57:05.060Z,100642.22
2022-10-23T20:59:31.866Z,100646.69
2022-10-23T21:01:58.709Z,100646.56
2022-10-23T21:04:28.049Z,100659.84
2022-10-23T21:07:12.825Z,100631.31
2022-10-23T21:09:40.128Z,100633.88
2022-10-23T21:12:08.361Z,100638.31
2022-10-23T21:14:35.320Z,100641.66
2022-10-23T21:17:01.973Z,100648.00
2022-10-23T21:19:28.503Z,100656.69
2022-10-23T21:21:55.406Z,100658.91
2022-10-23T21:24:24.691Z,100655.47
2022-10-23T21:26:51.437Z,100638.91
2022-10-23T21:29:19.479Z,100635.78
2022-10-23T21:31:58.711Z,100632.94
2022-10-23T21:34:26.171Z,100642.75
2022-10-23T21:37:12.337Z,100634.56
2022-10-23T21:39:40.236Z,100636.31
2022-10-23T21:42:06.943Z,100635.06
2022-10-23T21:44:33.699Z,100632.38
2022-10-23T21:47:00.489Z,100634.59
2022-10-23T21:49:27.171Z,100642.66
2022-10-23T21:51:55.146Z,100644.09
2022-10-23T21:54:22.195Z,100646.78
2022-10-23T21:56:51.637Z,100652.44
2022-10-23T21:59:21.106Z,100653.88
2022-10-23T22:01:49.111Z,100647.75
2022-10-23T22:04:17.678Z,100649.97
2022-10-23T22:06:45.328Z,100663.22
2022-10-23T22:09:14.840Z,100655.50
2022-10-23T22:11:41.870Z,100668.56
2022-10-23T22:14:09.094Z,100657.06
2022-10-23T22:16:35.644Z,100643.69
2022-10-23T22:19:02.215Z,100639.09
2022-10-23T22:21:30.643Z,100647.13
2022-10-23T22:23:59.895Z,100638.63
2022-10-23T22:26:29.195Z,100635.97
2022-10-23T22:28:58.048Z,100625.25
2022-10-23T22:31:27.901Z,100634.38
2022-10-23T22:33:57.337Z,100643.53
2022-10-23T22:36:24.627Z,100637.72
2022-10-23T22:38:51.980Z,100631.88
2022-10-23T22:41:19.514Z,100634.88
2022-10-23T22:43:46.167Z,100645.94
2022-10-23T22:46:15.637Z,100632.09
2022-10-23T22:48:43.882Z,100634.75
2022-10-23T22:51:17.265Z,100628.59
2022-10-23T22:53:44.724Z,100622.47
2022-10-23T22:56:15.004Z,100617.41
2022-10-23T22:58:42.045Z,100613.19
2022-10-23T23:01:14.085Z,100616.19
2022-10-23T23:03:42.607Z,100623.75
2022-10-23T23:06:10.267Z,100612.72
2022-10-23T23:08:38.595Z,100621.53
2022-10-23T23:11:08.138Z,100610.34
2022-10-23T23:13:35.047Z,100613.81
2022-10-23T23:16:04.616Z,100613.50
2022-10-23T23:18:32.024Z,100605.47
2022-10-23T23:21:06.873Z,100594.75
2022-10-23T23:23:33.369Z,100596.97
2022-10-23T23:25:59.983Z,100603.44
2022-10-23T23:28:26.479Z,100588.00
2022-10-23T23:31:03.717Z,100587.53
2022-10-23T23:33:30.479Z,100584.41
2022-10-23T23:35:57.111Z,100585.06
2022-10-23T23:38:23.779Z,100580.81
2022-10-23T23:40:53.796Z,100584.13
2022-10-23T23:43:20.709Z,100580.19
2022-10-23T23:45:47.632Z,100574.06
2022-10-23T23:48:14.351Z,100576.72
2022-10-23T23:50:41.327Z,100570.59
2022-10-23T23:53:08.165Z,100567.13
2022-10-23T23:55:35.128Z,100564.94
2022-10-23T23:58:02.117Z,100568.84
